createdAt,value
2024-01-12T00:00:18.106Z,10.90
2024-01-12T00:04:28.319Z,9.60
2024-01-12T00:08:20.165Z,9.30
2024-01-12T00:12:09.497Z,10.60
2024-01-12T00:15:58.867Z,9.30
2024-01-12T00:19:46.669Z,9.30
2024-01-12T00:23:36.139Z,10.40
2024-01-12T00:27:25.486Z,10.70
2024-01-12T00:31:14.860Z,10.30
2024-01-12T00:35:04.322Z,10.60
2024-01-12T00:38:55.155Z,11.30
2024-01-12T00:42:44.514Z,11.00
2024-01-12T00:46:28.070Z,11.10
2024-01-12T00:50:17.568Z,12.90
2024-01-12T00:53:58.600Z,11.80
2024-01-12T00:57:48.821Z,11.70
2024-01-12T01:01:38.238Z,11.20
2024-01-12T01:05:27.631Z,10.40
2024-01-12T01:09:17.099Z,10.70
2024-01-12T01:12:53.576Z,12.10
2024-01-12T01:16:32.098Z,10.40
2024-01-12T01:20:21.632Z,10.00
2024-01-12T01:24:10.849Z,10.00
2024-01-12T01:28:00.212Z,10.90
2024-01-12T01:31:49.578Z,10.00
2024-01-12T01:35:33.620Z,9.70
2024-01-12T01:39:22.984Z,10.70
2024-01-12T01:43:12.367Z,10.30
2024-01-12T01:47:00.758Z,11.00
2024-01-12T01:50:43.934Z,11.40
2024-01-12T01:54:33.457Z,10.10
2024-01-12T01:58:22.720Z,11.00
2024-01-12T02:02:04.912Z,11.40
2024-01-12T02:05:55.078Z,11.50
2024-01-12T02:09:37.400Z,11.60
2024-01-12T02:13:25.458Z,9.40
2024-01-12T02:17:16.930Z,10.80
2024-01-12T02:20:59.609Z,10.60
2024-01-12T02:24:49.107Z,11.90
2024-01-12T02:28:38.460Z,11.70
2024-01-12T02:32:27.888Z,11.50
2024-01-12T02:36:18.645Z,12.10
2024-01-12T02:39:47.863Z,12.20
2024-01-12T02:43:30.707Z,13.30
2024-01-12T02:47:19.115Z,12.30
2024-01-12T02:50:58.350Z,12.80
2024-01-12T02:54:35.258Z,13.10
2024-01-12T02:58:15.720Z,11.20
2024-01-12T03:02:05.275Z,12.90
2024-01-12T03:05:55.825Z,13.50
2024-01-12T03:09:45.394Z,13.80
2024-01-12T03:13:35.018Z,12.70
2024-01-12T03:17:24.616Z,13.40
2024-01-12T03:21:06.902Z,13.80
2024-01-12T03:24:49.235Z,13.80
2024-01-12T03:28:29.748Z,15.60
2024-01-12T03:31:51.580Z,13.00
2024-01-12T03:35:33.841Z,14.40
2024-01-12T03:39:11.901Z,13.20
2024-01-12T03:43:01.215Z,14.80
2024-01-12T03:46:43.089Z,11.80
2024-01-12T03:50:13.756Z,14.70
2024-01-12T03:54:03.322Z,15.20
2024-01-12T03:57:52.685Z,13.70
2024-01-12T04:01:42.155Z,14.90
2024-01-12T04:05:31.621Z,13.40
2024-01-12T04:09:13.842Z,14.30
2024-01-12T04:12:56.253Z,13.60
2024-01-12T04:16:45.633Z,14.90
2024-01-12T04:20:14.945Z,12.80
2024-01-12T04:24:04.583Z,15.50
2024-01-12T04:27:53.900Z,13.40
2024-01-12T04:31:36.002Z,15.60
2024-01-12T04:35:23.690Z,14.30
2024-01-12T04:39:06.160Z,14.20
2024-01-12T04:42:48.065Z,13.70
2024-01-12T04:46:37.517Z,14.00
2024-01-12T04:50:11.047Z,14.90
2024-01-12T04:54:00.456Z,15.90
2024-01-12T04:57:29.733Z,14.80
2024-01-12T05:01:19.128Z,14.00
2024-01-12T05:05:08.482Z,15.00
2024-01-12T05:08:40.707Z,15.00
2024-01-12T05:12:30.057Z,14.50
2024-01-12T05:16:19.409Z,14.30
2024-01-12T05:20:08.979Z,15.30
2024-01-12T05:23:30.568Z,12.00
2024-01-12T05:27:15.899Z,2.80
2024-01-12T05:30:39.232Z,1.30
2024-01-12T05:33:59.244Z,0.50
2024-01-12T05:37:21.812Z,0.30
2024-01-12T05:40:33.698Z,1.60
2024-01-12T05:44:05.992Z,0.60
2024-01-12T05:47:48.688Z,0.30
2024-01-12T05:51:13.918Z,0.50
2024-01-12T05:55:03.327Z,0.40
2024-01-12T05:58:29.107Z,0.30
2024-01-12T06:02:18.237Z,0.40
2024-01-12T06:05:47.545Z,0.40
2024-01-12T06:08:57.143Z,0.50
2024-01-12T06:11:51.550Z,0.40
2024-01-12T06:15:23.590Z,1.10
2024-01-12T06:18:47.759Z,0.30
2024-01-12T06:22:14.381Z,0.70
2024-01-12T06:25:28.681Z,0.80
2024-01-12T06:28:32.386Z,1.20
2024-01-12T06:31:39.910Z,1.00
2024-01-12T06:35:06.663Z,1.10
2024-01-12T06:38:37.233Z,0.80
2024-01-12T06:42:26.548Z,1.70
2024-01-12T06:46:15.829Z,1.70
2024-01-12T06:49:40.299Z,1.90
2024-01-12T06:53:23.663Z,2.10
2024-01-12T06:56:41.710Z,3.30
2024-01-12T07:00:13.523Z,1.80
2024-01-12T07:03:10.589Z,2.10
2024-01-12T07:06:50.529Z,1.30
2024-01-12T07:10:15.350Z,0.60
2024-01-12T07:13:24.182Z,0.80
2024-01-12T07:16:33.540Z,0.80
2024-01-12T07:20:15.869Z,0.70
2024-01-12T07:24:05.570Z,1.00
2024-01-12T07:27:54.894Z,1.10
2024-01-12T07:31:44.712Z,0.50
2024-01-12T07:35:26.848Z,0.50
2024-01-12T07:39:05.283Z,0.60
2024-01-12T07:42:40.667Z,0.50
2024-01-12T07:46:29.941Z,0.40
2024-01-12T07:49:47.109Z,0.90
2024-01-12T07:53:19.667Z,1.10
2024-01-12T07:56:59.178Z,2.20
2024-01-12T08:00:08.781Z,1.40
2024-01-12T08:03:40.699Z,1.60
2024-01-12T08:07:11.821Z,1.10
2024-01-12T08:11:01.218Z,0.90
2024-01-12T08:14:44.419Z,0.40
2024-01-12T08:18:33.774Z,1.10
2024-01-12T08:21:55.972Z,0.60
2024-01-12T08:25:24.885Z,0.80
2024-01-12T08:29:03.181Z,1.10
2024-01-12T08:32:52.554Z,0.40
2024-01-12T08:36:24.679Z,0.90
2024-01-12T08:40:07.659Z,0.80
2024-01-12T08:43:55.708Z,1.30
2024-01-12T08:47:45.114Z,2.20
2024-01-12T08:51:34.349Z,1.70
2024-01-12T08:55:23.659Z,0.90
2024-01-12T08:59:13.287Z,2.70
2024-01-12T09:03:02.830Z,2.00
2024-01-12T09:06:14.589Z,2.00
2024-01-12T09:09:44.064Z,1.00
2024-01-12T09:13:33.348Z,1.10
2024-01-12T09:16:37.711Z,1.00
2024-01-12T09:19:48.123Z,1.00
2024-01-12T09:23:16.905Z,1.10
2024-01-12T09:27:06.376Z,1.00
2024-01-12T09:30:55.813Z,2.40
2024-01-12T09:34:41.341Z,1.10
2024-01-12T09:38:19.681Z,1.40
2024-01-12T09:41:37.810Z,1.90
2024-01-12T09:45:21.434Z,2.30
2024-01-12T09:48:55.621Z,1.50
2024-01-12T09:52:22.445Z,1.50
2024-01-12T09:56:05.454Z,2.10
2024-01-12T09:59:59.581Z,1.60
2024-01-12T10:03:40.647Z,3.60
2024-01-12T10:07:30.650Z,3.70
2024-01-12T10:11:19.972Z,5.50
2024-01-12T10:15:09.372Z,2.60
2024-01-12T10:18:58.965Z,2.60
2024-01-12T10:22:40.745Z,1.90
2024-01-12T10:26:38.837Z,0.90
2024-01-12T10:30:17.566Z,1.60
2024-01-12T10:33:57.200Z,1.20
2024-01-12T10:37:46.545Z,2.70
2024-01-12T10:41:15.657Z,1.30
2024-01-12T10:45:07.758Z,3.40
2024-01-12T10:49:00.359Z,3.80
2024-01-12T10:52:54.941Z,1.90
2024-01-12T10:56:38.210Z,1.80
2024-01-12T11:00:21.801Z,2.30
2024-01-12T11:04:11.137Z,2.50
2024-01-12T11:07:32.894Z,1.80
2024-01-12T11:10:42.660Z,2.50
2024-01-12T11:14:21.163Z,2.50
2024-01-12T11:18:08.038Z,2.50
2024-01-12T11:21:45.699Z,1.90
2024-01-12T11:25:19.507Z,2.20
2024-01-12T11:29:03.434Z,2.60
2024-01-12T11:32:51.744Z,1.10
2024-01-12T11:36:33.724Z,1.20
2024-01-12T11:40:22.930Z,1.70
2024-01-12T11:44:12.204Z,1.20
2024-01-12T11:48:01.831Z,1.70
2024-01-12T11:51:52.156Z,2.40
2024-01-12T11:55:21.456Z,1.00
2024-01-12T11:59:10.734Z,0.60
2024-01-12T12:02:55.739Z,0.90
2024-01-12T12:06:40.642Z,1.40
2024-01-12T12:10:19.685Z,1.10
2024-01-12T12:14:01.315Z,0.80
2024-01-12T12:17:41.604Z,1.00
2024-01-12T12:21:25.179Z,1.10
2024-01-12T12:25:01.089Z,0.90
2024-01-12T12:28:50.490Z,1.20
2024-01-12T12:32:42.762Z,1.10
2024-01-12T12:36:22.104Z,1.30
2024-01-12T12:40:04.152Z,2.10
2024-01-12T12:43:53.354Z,2.00
2024-01-12T12:47:33.774Z,1.80
2024-01-12T12:51:17.033Z,1.50
2024-01-12T12:54:28.099Z,2.30
2024-01-12T12:57:35.635Z,1.60
2024-01-12T13:01:18.935Z,2.60
2024-01-12T13:04:47.074Z,1.90
2024-01-12T13:08:29.133Z,1.50
2024-01-12T13:12:18.452Z,1.90
2024-01-12T13:16:06.536Z,1.40
2024-01-12T13:19:48.649Z,1.60
2024-01-12T13:23:31.931Z,2.10
2024-01-12T13:27:21.255Z,2.20
2024-01-12T13:30:33.411Z,1.50
2024-01-12T13:34:02.753Z,2.10
2024-01-12T13:37:37.363Z,2.20
2024-01-12T13:40:54.923Z,2.00
2024-01-12T13:44:44.337Z,2.30
2024-01-12T13:48:26.231Z,2.60
2024-01-12T13:52:10.166Z,1.70
2024-01-12T13:55:53.412Z,2.10
2024-01-12T13:59:42.848Z,2.40
2024-01-12T14:03:32.221Z,2.70
2024-01-12T14:06:58.027Z,2.90
2024-01-12T14:09:52.864Z,1.60
2024-01-12T14:13:04.463Z,3.10
2024-01-12T14:16:21.994Z,3.40
2024-01-12T14:19:35.549Z,3.50
2024-01-12T14:22:35.396Z,4.20
2024-01-12T14:26:14.676Z,4.50
2024-01-12T14:30:03.419Z,2.90
2024-01-12T14:32:50.432Z,1.80
2024-01-12T14:36:12.256Z,2.50
2024-01-12T14:38:41.081Z,2.80
2024-01-12T14:42:10.317Z,2.30
2024-01-12T14:45:59.557Z,2.20
2024-01-12T14:49:48.957Z,2.20
2024-01-12T14:52:57.148Z,5.20
2024-01-12T14:55:40.428Z,1.50
2024-01-12T14:58:14.200Z,1.70
2024-01-12T15:01:09.465Z,1.90
2024-01-12T15:04:10.375Z,2.40
2024-01-12T15:07:47.217Z,2.60
2024-01-12T15:11:36.534Z,2.10
2024-01-12T15:15:25.776Z,2.20
2024-01-12T15:18:55.452Z,3.40
2024-01-12T15:22:17.313Z,2.80
2024-01-12T15:25:07.092Z,3.70
2024-01-12T15:28:08.850Z,3.60
2024-01-12T15:31:15.279Z,2.70
2024-01-12T15:34:32.923Z,3.00
2024-01-12T15:38:02.573Z,3.00
2024-01-12T15:42:00.420Z,4.90
2024-01-12T15:45:42.762Z,2.60
2024-01-12T15:49:32.377Z,3.10
2024-01-12T15:53:21.307Z,3.20
2024-01-12T15:57:04.616Z,5.50
2024-01-12T16:00:47.992Z,13.50
2024-01-12T16:04:27.746Z,9.50
2024-01-12T16:08:05.562Z,7.50
2024-01-12T16:11:53.913Z,4.70
2024-01-12T16:15:38.988Z,7.50
2024-01-12T16:19:11.613Z,6.40
2024-01-12T16:23:04.818Z,3.60
2024-01-12T16:26:37.069Z,5.40
2024-01-12T16:29:36.122Z,23.10
2024-01-12T16:33:11.610Z,37.80
2024-01-12T16:36:50.886Z,11.30
2024-01-12T16:40:33.351Z,8.20
2024-01-12T16:43:49.261Z,5.30
2024-01-12T16:47:38.608Z,5.30
2024-01-12T16:51:17.092Z,5.20
2024-01-12T16:55:05.439Z,4.40
2024-01-12T16:58:01.568Z,5.90
2024-01-12T17:01:06.248Z,7.60
2024-01-12T17:04:09.850Z,7.40
2024-01-12T17:07:28.760Z,5.30
2024-01-12T17:11:18.467Z,5.20
2024-01-12T17:14:30.264Z,5.70
2024-01-12T17:18:16.195Z,6.80
2024-01-12T17:22:11.782Z,8.00
2024-01-12T17:26:00.984Z,9.50
2024-01-12T17:29:22.681Z,7.30
2024-01-12T17:33:05.344Z,8.00
2024-01-12T17:36:54.452Z,7.70
2024-01-12T17:40:43.626Z,9.20
2024-01-12T17:44:33.050Z,7.40
2024-01-12T17:48:15.091Z,10.70
2024-01-12T17:51:59.471Z,12.50
2024-01-12T17:55:41.720Z,21.30
2024-01-12T17:59:16.450Z,20.90
2024-01-12T18:03:05.886Z,18.40
2024-01-12T18:06:38.990Z,34.50
2024-01-12T18:10:16.759Z,23.70
2024-01-12T18:13:59.324Z,23.10
2024-01-12T18:17:47.630Z,22.80
2024-01-12T18:21:37.264Z,22.20
2024-01-12T18:25:16.452Z,23.70
2024-01-12T18:29:06.584Z,22.60
2024-01-12T18:32:47.225Z,22.70
2024-01-12T18:36:20.039Z,23.30
2024-01-12T18:40:12.690Z,19.20
2024-01-12T18:44:02.027Z,16.50
2024-01-12T18:47:21.282Z,15.40
2024-01-12T18:50:18.956Z,15.30
2024-01-12T18:53:12.715Z,49.20
2024-01-12T18:56:03.095Z,17.90
2024-01-12T18:59:00.832Z,17.30
2024-01-12T19:01:49.295Z,16.70
2024-01-12T19:04:33.128Z,22.90
2024-01-12T19:10:30.122Z,18.50
2024-01-12T19:13:24.957Z,49.70
2024-01-12T19:16:19.793Z,16.20
2024-01-12T19:19:26.017Z,14.60
2024-01-12T19:22:39.952Z,20.20
2024-01-12T19:26:29.444Z,43.20
2024-01-12T19:30:01.757Z,17.40
2024-01-12T19:33:24.718Z,13.90
2024-01-12T19:36:56.709Z,15.20
2024-01-12T19:39:49.954Z,14.40
2024-01-12T19:42:52.944Z,19.20
2024-01-12T19:45:42.131Z,36.40
2024-01-12T19:48:44.472Z,14.50
2024-01-12T19:52:09.573Z,14.70
2024-01-12T19:55:15.971Z,15.40
2024-01-12T19:58:41.272Z,34.40
2024-01-12T20:01:59.405Z,35.20
2024-01-12T20:05:06.099Z,21.90
2024-01-12T20:08:55.421Z,26.60
2024-01-12T20:12:32.059Z,23.30
2024-01-12T20:16:21.383Z,30.70
2024-01-12T20:20:10.825Z,27.60
2024-01-12T20:24:00.125Z,24.20
2024-01-12T20:27:38.720Z,54.40
2024-01-12T20:31:11.271Z,18.80
2024-01-12T20:34:53.724Z,21.80
2024-01-12T20:38:43.423Z,18.80
2024-01-12T20:42:35.833Z,27.80
2024-01-12T20:46:24.254Z,20.00
2024-01-12T20:50:12.639Z,11.10
2024-01-12T20:53:51.040Z,16.70
2024-01-12T20:57:23.855Z,19.70
2024-01-12T21:00:54.922Z,22.10
2024-01-12T21:04:37.152Z,37.20
2024-01-12T21:07:20.081Z,35.30
2024-01-12T21:10:03.352Z,25.70
2024-01-12T21:15:20.646Z,33.60
2024-01-12T21:18:00.804Z,29.40
2024-01-12T21:20:44.890Z,31.30
2024-01-12T21:23:22.023Z,21.20
2024-01-12T21:26:20.426Z,18.90
2024-01-12T21:29:28.525Z,21.00
2024-01-12T21:32:02.283Z,25.10
2024-01-12T21:34:39.438Z,22.00
2024-01-12T21:37:50.907Z,29.10
2024-01-12T21:41:24.164Z,22.20
2024-01-12T21:45:05.143Z,20.90
2024-01-12T21:48:54.531Z,20.00
2024-01-12T21:52:29.030Z,25.30
2024-01-12T21:59:14.754Z,22.20
2024-01-12T22:02:37.824Z,22.40
2024-01-12T22:06:18.272Z,22.80
2024-01-12T22:10:08.410Z,20.90
2024-01-12T22:13:47.710Z,15.60
2024-01-12T22:16:57.037Z,17.20
2024-01-12T22:20:35.897Z,17.00
2024-01-12T22:24:25.240Z,20.30
2024-01-12T22:27:44.824Z,17.40
2024-01-12T22:31:07.150Z,16.20
2024-01-12T22:34:56.564Z,17.10
2024-01-12T22:37:47.556Z,19.70
2024-01-12T22:40:48.799Z,18.30
2024-01-12T22:43:23.057Z,16.90
2024-01-12T22:46:03.078Z,15.30
2024-01-12T22:48:44.170Z,11.50
2024-01-12T22:52:17.851Z,12.50
2024-01-12T22:55:56.381Z,10.40
2024-01-12T22:59:39.265Z,6.30
2024-01-12T23:03:28.823Z,6.90
2024-01-12T23:07:11.092Z,7.40
2024-01-12T23:11:00.799Z,7.10
2024-01-12T23:14:49.451Z,5.30
2024-01-12T23:18:42.354Z,4.90
2024-01-12T23:22:25.195Z,7.80
2024-01-12T23:26:14.509Z,5.70
2024-01-12T23:30:04.209Z,10.60
2024-01-12T23:33:53.769Z,12.10
2024-01-12T23:37:46.213Z,8.40
2024-01-12T23:41:22.171Z,8.70
2024-01-12T23:45:11.558Z,8.50
2024-01-12T23:48:53.822Z,8.10
2024-01-12T23:52:34.684Z,7.50
2024-01-12T23:56:24.222Z,7.60
